Ballypatrick Forest, United Kingdom
Current Conditions -  °F | °C
As of 7:50 PM on Tuesday 21 Oct 2014 (Local Time) from EGEC Reporting Station
Few Clouds Few Clouds  
Wind Chill: 38°   Ceiling: Unl
Heat Index: 46°   Visibility: 6mi
Dew Point: 41°   Wind: 23mph
Humidity: 81%   Direction: 310°NW
Pressure: 29.94"   Gusts: NA
Location:  55.18°N, 6.17°W
Report Text: EGEC 211850Z 31020KT 9999 FEW024 08/05 Q1014
Loading
Personal Weather Stations






























Interactive Weather Map
Tropical Storm Tracking
New forecast layout! Learn more

10-Day Weather Forecast

Advertisements
Track Severe Weather on mobile